Impacts TAF Board
For situational awareness. Not to be used for flight planning purposes.
IDs:

KSAT - San Antonio Intl, TX, US

Issued at 1140 UTC 19 Feb 2020
Updated at 1246 UTC 19 Feb 2020
Potential Impact None Slight Moderate High
Time<<20/13Z 20/14Z 20/15Z 20/16Z 20/17Z 20/18Z 20/19Z 20/20Z 20/21Z 20/22Z 20/23Z 21/00Z 21/01Z
Type PRVL PRVL PRVL PRVL PRVL
VIS 5 5 >6 >6 >6
CIG 6 6 12 12 12
Cover OVC OVC OVC OVC OVC
FltCat IFR IFR MVFR MVFR MVFR
WX -RA BR -RA BR -- -- --
WDir 20 20 20 20 20
WSpd 10 10 15 15 15
WGst -- -- -- -- --
R04/22
XWnd 4 4 5 5 5 0 0 0 0 0 0 0 0
HWnd 9 9 14 14 14 0 0 0 0 0 0 0 0
R12/30
XWnd 9 9 14 14 14 0 0 0 0 0 0 0 0
HWnd -4 -4 -6 -6 -6 0 0 0 0 0 0 0 0
Raw TAF
KSAT 191140Z 1912/2018 01012KT P6SM -RA OVC012
  FM191500 01012KT 5SM -RA BR OVC007
  FM200100 02009KT 2SM -RA BR OVC004
  FM201000 02010KT 5SM -RA BR OVC006
  FM201500 02015KT P6SM OVC012


METAR Board
Radar Display
Forecast Discussion
For situational awareness. Not to be used for flight planning purposes.